createdAt,value
2022-11-05T00:01:30.091Z,99518.78
2022-11-05T00:04:15.636Z,99516.06
2022-11-05T00:07:01.481Z,99545.25
2022-11-05T00:09:31.462Z,99531.28
2022-11-05T00:12:20.564Z,99525.53
2022-11-05T00:15:06.038Z,99530.25
2022-11-05T00:17:33.747Z,99518.72
2022-11-05T00:20:00.849Z,99528.59
2022-11-05T00:22:46.665Z,99527.81
2022-11-05T00:25:19.785Z,99544.47
2022-11-05T00:27:52.403Z,99547.78
2022-11-05T00:30:25.693Z,99559.47
2022-11-05T00:32:53.329Z,99551.44
2022-11-05T00:35:22.298Z,99540.75
2022-11-05T00:37:50.547Z,99543.22
2022-11-05T00:40:17.759Z,99541.34
2022-11-05T00:43:03.735Z,99553.91
2022-11-05T00:45:31.534Z,99553.31
2022-11-05T00:48:16.760Z,99554.53
2022-11-05T00:50:43.733Z,99551.84
2022-11-05T00:53:11.351Z,99560.69
2022-11-05T00:55:39.766Z,99561.53
2022-11-05T00:58:12.287Z,99559.69
2022-11-05T01:00:41.981Z,99556.22
2022-11-05T01:03:12.160Z,99563.59
2022-11-05T01:05:54.903Z,99555.13
2022-11-05T01:08:24.256Z,99568.47
2022-11-05T01:10:54.023Z,99569.53
2022-11-05T01:13:30.898Z,99578.56
2022-11-05T01:15:57.805Z,99586.56
2022-11-05T01:18:25.508Z,99555.91
2022-11-05T01:20:52.557Z,99564.34
2022-11-05T01:23:19.867Z,99584.09
2022-11-05T01:25:47.194Z,99582.66
2022-11-05T01:28:14.173Z,99594.16
2022-11-05T01:30:41.314Z,99579.16
2022-11-05T01:33:08.483Z,99573.78
2022-11-05T01:35:35.633Z,99575.63
2022-11-05T01:38:02.521Z,99573.91
2022-11-05T01:40:29.587Z,99564.41
2022-11-05T01:42:57.978Z,99587.03
2022-11-05T01:45:28.508Z,99594.63
2022-11-05T01:48:05.982Z,99580.44
2022-11-05T01:50:43.437Z,99590.22
2022-11-05T01:53:13.811Z,99595.41
2022-11-05T01:55:46.087Z,99610.34
2022-11-05T01:58:17.952Z,99585.38
2022-11-05T02:00:45.222Z,99590.59
2022-11-05T02:03:16.859Z,99606.22
2022-11-05T02:05:45.119Z,99598.03
2022-11-05T02:08:22.796Z,99597.84
2022-11-05T02:10:50.661Z,99597.53
2022-11-05T02:13:17.560Z,99615.25
2022-11-05T02:16:32.056Z,99601.19
2022-11-05T02:19:23.553Z,99610.31
2022-11-05T02:22:08.628Z,99616.03
2022-11-05T02:24:57.245Z,99616.38
2022-11-05T02:27:38.696Z,99607.69
2022-11-05T02:30:09.771Z,99623.22
2022-11-05T02:33:06.800Z,99614.00
2022-11-05T02:36:18.409Z,99605.97
2022-11-05T02:39:11.865Z,99613.41
2022-11-05T02:42:04.929Z,99618.56
2022-11-05T02:44:44.639Z,99622.28
2022-11-05T02:47:24.812Z,99628.88
2022-11-05T02:50:06.247Z,99617.38
2022-11-05T02:52:41.762Z,99621.69
2022-11-05T02:56:04.064Z,99624.06
2022-11-05T02:58:33.438Z,99629.13
2022-11-05T03:01:02.164Z,99621.31
2022-11-05T03:03:31.817Z,99638.22
2022-11-05T03:05:58.760Z,99653.22
2022-11-05T03:08:55.054Z,99644.41
2022-11-05T03:11:26.246Z,99654.25
2022-11-05T03:14:05.369Z,99643.38
2022-11-05T03:16:49.718Z,99636.56
2022-11-05T03:19:52.356Z,99643.63
2022-11-05T03:22:26.115Z,99634.53
2022-11-05T03:24:58.332Z,99630.84
2022-11-05T03:27:33.685Z,99655.78
2022-11-05T03:30:05.978Z,99656.81
2022-11-05T03:32:35.938Z,99654.09
2022-11-05T03:35:08.657Z,99668.28
2022-11-05T03:37:40.650Z,99657.59
2022-11-05T03:40:10.458Z,99653.84
2022-11-05T03:42:41.058Z,99664.53
2022-11-05T03:45:23.768Z,99637.91
2022-11-05T03:47:55.333Z,99675.66
2022-11-05T03:50:46.668Z,99677.94
2022-11-05T03:53:23.134Z,99681.63
2022-11-05T03:56:04.413Z,99651.25
2022-11-05T03:58:32.274Z,99683.78
2022-11-05T04:01:02.421Z,99682.91
2022-11-05T04:03:36.466Z,99694.97
2022-11-05T04:06:24.145Z,99692.25
2022-11-05T04:09:15.260Z,99711.75
2022-11-05T04:12:00.850Z,99695.31
2022-11-05T04:14:27.926Z,99705.59
2022-11-05T04:17:07.931Z,99703.75
2022-11-05T04:19:54.420Z,99707.25
2022-11-05T04:22:40.658Z,99685.41
2022-11-05T04:25:08.312Z,99691.81
2022-11-05T04:27:38.205Z,99690.97
2022-11-05T04:30:24.377Z,99698.03
2022-11-05T04:33:03.742Z,99707.69
2022-11-05T04:35:32.586Z,99693.50
2022-11-05T04:38:00.976Z,99693.06
2022-11-05T04:40:30.814Z,99697.19
2022-11-05T04:42:58.600Z,99714.88
2022-11-05T04:45:28.154Z,99697.19
2022-11-05T04:47:55.191Z,99694.91
2022-11-05T04:50:22.804Z,99723.31
2022-11-05T04:52:49.789Z,99692.25
2022-11-05T04:55:16.901Z,99720.47
2022-11-05T04:57:43.832Z,99718.59
2022-11-05T05:00:11.388Z,99711.03
2022-11-05T05:02:38.539Z,99725.03
2022-11-05T05:05:10.763Z,99714.34
2022-11-05T05:07:37.793Z,99720.25
2022-11-05T05:10:07.029Z,99712.59
2022-11-05T05:12:35.171Z,99730.69
2022-11-05T05:15:02.249Z,99717.28
2022-11-05T05:17:32.014Z,99720.97
2022-11-05T05:20:17.285Z,99716.25
2022-11-05T05:22:44.239Z,99742.56
2022-11-05T05:25:11.255Z,99738.88
2022-11-05T05:27:38.823Z,99737.09
2022-11-05T05:30:06.354Z,99743.16
2022-11-05T05:32:34.841Z,99740.50
2022-11-05T05:35:01.876Z,99743.59
2022-11-05T05:37:28.910Z,99744.81
2022-11-05T05:39:55.846Z,99754.66
2022-11-05T05:42:23.091Z,99733.66
2022-11-05T05:44:50.054Z,99750.41
2022-11-05T05:47:17.060Z,99751.03
2022-11-05T05:49:44.038Z,99766.28
2022-11-05T05:52:10.984Z,99757.25
2022-11-05T05:54:42.426Z,99763.66
2022-11-05T05:57:32.059Z,99774.16
2022-11-05T06:00:02.090Z,99753.25
2022-11-05T06:02:39.095Z,99760.69
2022-11-05T06:05:06.569Z,99773.47
2022-11-05T06:07:37.288Z,99777.41
2022-11-05T06:10:05.062Z,99771.88
2022-11-05T06:12:32.304Z,99765.91
2022-11-05T06:14:59.236Z,99761.00
2022-11-05T06:17:26.136Z,99783.31
2022-11-05T06:19:53.104Z,99772.59
2022-11-05T06:22:20.088Z,99765.06
2022-11-05T06:24:47.234Z,99784.50
2022-11-05T06:27:14.131Z,99789.84
2022-11-05T06:29:41.092Z,99781.06
2022-11-05T06:32:08.056Z,99777.19
2022-11-05T06:34:38.852Z,99775.94
2022-11-05T06:37:05.775Z,99771.13
2022-11-05T06:39:32.833Z,99767.41
2022-11-05T06:44:46.882Z,99785.72
2022-11-05T06:47:14.001Z,99784.63
2022-11-05T06:49:40.961Z,99778.47
2022-11-05T06:52:08.298Z,99790.66
2022-11-05T06:54:35.235Z,99820.06
2022-11-05T06:57:03.773Z,99810.19
2022-11-05T06:59:30.859Z,99815.00
2022-11-05T07:01:57.808Z,99804.22
2022-11-05T07:04:24.741Z,99811.69
2022-11-05T07:06:51.660Z,99810.19
2022-11-05T07:09:18.653Z,99821.41
2022-11-05T07:11:45.781Z,99818.28
2022-11-05T07:14:13.935Z,99815.09
2022-11-05T07:16:40.943Z,99811.19
2022-11-05T07:19:07.869Z,99818.44
2022-11-05T07:21:36.000Z,99819.69
2022-11-05T07:24:03.158Z,99837.47
2022-11-05T07:26:34.401Z,99817.00
2022-11-05T07:29:02.363Z,99858.03
2022-11-05T07:31:29.653Z,99828.09
2022-11-05T07:33:56.611Z,99835.91
2022-11-05T07:36:23.539Z,99836.50
2022-11-05T07:38:50.532Z,99838.34
2022-11-05T07:41:18.890Z,99857.97
2022-11-05T07:43:50.901Z,99845.97
2022-11-05T07:46:18.038Z,99839.38
2022-11-05T07:48:45.058Z,99853.81
2022-11-05T07:51:12.045Z,99848.09
2022-11-05T07:53:44.059Z,99861.72
2022-11-05T07:56:13.098Z,99855.31
2022-11-05T07:58:40.119Z,99850.94
2022-11-05T08:01:07.506Z,99849.56
2022-11-05T08:03:34.938Z,99863.59
2022-11-05T08:06:02.580Z,99857.59
2022-11-05T08:08:29.526Z,99861.75
2022-11-05T08:11:03.613Z,99842.44
2022-11-05T08:13:30.743Z,99868.22
2022-11-05T08:15:58.254Z,99863.88
2022-11-05T08:18:31.450Z,99855.22
2022-11-05T08:21:00.067Z,99857.72
2022-11-05T08:23:28.550Z,99869.66
2022-11-05T08:26:05.542Z,99874.66
2022-11-05T08:28:32.565Z,99863.97
2022-11-05T08:30:59.574Z,99870.50
2022-11-05T08:33:29.614Z,99871.97
2022-11-05T08:35:56.543Z,99872.94
2022-11-05T08:38:23.391Z,99869.44
2022-11-05T08:40:57.575Z,99875.84
2022-11-05T08:43:25.042Z,99864.88
2022-11-05T08:45:55.818Z,99877.88
2022-11-05T08:48:23.011Z,99870.50
2022-11-05T08:50:50.637Z,99893.41
2022-11-05T08:53:17.999Z,99878.44
2022-11-05T08:55:47.874Z,99888.16
2022-11-05T08:58:17.234Z,99866.44
2022-11-05T09:00:47.631Z,99880.13
2022-11-05T09:03:15.269Z,99864.81
2022-11-05T09:05:43.098Z,99857.19
2022-11-05T09:08:18.603Z,99867.88
2022-11-05T09:10:47.183Z,99863.75
2022-11-05T09:13:18.916Z,99885.41
2022-11-05T09:15:47.721Z,99863.75
2022-11-05T09:18:15.634Z,99883.16
2022-11-05T09:20:43.363Z,99877.50
2022-11-05T09:23:17.064Z,99872.09
2022-11-05T09:25:44.451Z,99880.56
2022-11-05T09:28:20.535Z,99876.97
2022-11-05T09:30:51.079Z,99874.19
2022-11-05T09:33:22.224Z,99891.53
2022-11-05T09:35:49.179Z,99882.59
2022-11-05T09:38:16.191Z,99880.16
2022-11-05T09:40:54.809Z,99886.09
2022-11-05T09:43:31.926Z,99894.13
2022-11-05T09:46:04.822Z,99888.38
2022-11-05T09:48:34.123Z,99867.16
2022-11-05T09:51:01.184Z,99876.88
2022-11-05T09:53:28.438Z,99887.00
2022-11-05T09:55:58.313Z,99905.72
2022-11-05T09:58:44.627Z,99893.41
2022-11-05T10:01:17.683Z,99901.44
2022-11-05T10:03:51.247Z,99887.75
2022-11-05T10:06:24.321Z,99889.22
2022-11-05T10:09:07.846Z,99912.97
2022-11-05T10:11:42.078Z,99911.91
2022-11-05T10:14:17.001Z,99923.47
2022-11-05T10:16:48.935Z,99911.50
2022-11-05T10:19:40.147Z,99914.81
2022-11-05T10:22:17.433Z,99917.50
2022-11-05T10:24:47.433Z,99943.41
2022-11-05T10:27:19.468Z,99916.28
2022-11-05T10:29:48.512Z,99907.50
2022-11-05T10:32:27.004Z,99920.94
2022-11-05T10:34:57.733Z,99909.03
2022-11-05T10:37:25.528Z,99913.16
2022-11-05T10:39:52.956Z,99911.75
2022-11-05T10:42:19.869Z,99917.34
2022-11-05T10:45:11.785Z,99920.00
2022-11-05T10:47:53.858Z,99912.00
2022-11-05T10:50:25.564Z,99917.34
2022-11-05T10:52:52.428Z,99915.28
2022-11-05T10:55:25.767Z,99932.56
2022-11-05T10:57:53.449Z,99907.44
2022-11-05T11:00:23.089Z,99914.66
2022-11-05T11:03:00.617Z,99929.50
2022-11-05T11:05:32.845Z,99921.91
2022-11-05T11:08:10.684Z,99926.44
2022-11-05T11:10:57.547Z,99928.31
2022-11-05T11:13:30.176Z,99940.44
2022-11-05T11:16:16.422Z,99937.97
2022-11-05T11:18:44.083Z,99934.03
2022-11-05T11:21:20.375Z,99936.31
2022-11-05T11:24:07.105Z,99941.03
2022-11-05T11:26:40.161Z,99942.44
2022-11-05T11:29:42.925Z,99935.41
2022-11-05T11:32:19.715Z,99943.03
2022-11-05T11:34:51.066Z,99945.84
2022-11-05T11:37:22.025Z,99965.19
2022-11-05T11:39:56.717Z,99971.81
2022-11-05T11:42:38.492Z,99953.09
2022-11-05T11:45:34.120Z,99951.25
2022-11-05T11:48:04.560Z,99948.88
2022-11-05T11:50:31.362Z,99947.56
2022-11-05T11:53:16.971Z,99947.78
2022-11-05T11:55:58.239Z,99953.78
2022-11-05T11:58:37.478Z,99949.63
2022-11-05T12:01:34.048Z,99967.69
2022-11-05T12:04:29.153Z,99953.03
2022-11-05T12:07:26.955Z,99957.19
2022-11-05T12:10:12.786Z,99961.91
2022-11-05T12:12:45.475Z,99960.78
2022-11-05T12:15:41.210Z,99959.28
2022-11-05T12:18:22.006Z,99987.69
2022-11-05T12:21:50.844Z,99971.25
2022-11-05T12:24:36.665Z,99961.38
2022-11-05T12:27:26.233Z,99959.53
2022-11-05T12:30:02.371Z,99959.72
2022-11-05T12:33:04.009Z,99958.25
2022-11-05T12:35:47.395Z,99962.72
2022-11-05T12:38:45.364Z,99956.13
2022-11-05T12:41:18.280Z,99967.00
2022-11-05T12:44:21.587Z,99969.47
2022-11-05T12:47:15.989Z,99978.53
2022-11-05T12:50:00.116Z,99961.56
2022-11-05T12:52:35.237Z,99966.56
2022-11-05T12:55:26.804Z,99973.75
2022-11-05T12:58:31.692Z,99974.38
2022-11-05T13:01:23.609Z,99986.28
2022-11-05T13:04:06.795Z,99974.94
2022-11-05T13:06:40.965Z,99977.09
2022-11-05T13:09:21.932Z,99976.13
2022-11-05T13:11:52.758Z,99979.63
2022-11-05T13:14:29.120Z,99981.88
2022-11-05T13:17:03.494Z,99974.44
2022-11-05T13:19:43.945Z,99969.00
2022-11-05T13:22:15.515Z,99984.09
2022-11-05T13:24:51.478Z,99968.19
2022-11-05T13:27:40.176Z,100000.00
2022-11-05T13:30:12.794Z,99978.44
2022-11-05T13:32:43.538Z,99999.66
2022-11-05T13:35:25.000Z,99989.69
2022-11-05T13:38:17.135Z,99995.38
2022-11-05T13:41:07.695Z,100005.75
2022-11-05T13:43:56.282Z,100010.25
2022-11-05T13:46:39.140Z,100014.59
2022-11-05T13:49:47.680Z,100025.91
2022-11-05T13:52:43.908Z,100037.44
2022-11-05T13:55:26.012Z,100020.75
2022-11-05T13:58:11.702Z,100020.75
2022-11-05T14:01:11.802Z,100012.88
2022-11-05T14:03:45.528Z,100043.91
2022-11-05T14:06:12.359Z,100020.69
2022-11-05T14:08:44.390Z,100043.84
2022-11-05T14:11:29.311Z,100023.69
2022-11-05T14:14:03.308Z,100028.00
2022-11-05T14:16:48.023Z,100028.44
2022-11-05T14:19:18.573Z,100027.25
2022-11-05T14:21:56.757Z,100018.34
2022-11-05T14:24:24.039Z,100030.28
2022-11-05T14:27:03.171Z,100036.03
2022-11-05T14:29:41.218Z,100035.19
2022-11-05T14:32:18.806Z,100029.66
2022-11-05T14:35:16.689Z,100029.09
2022-11-05T14:38:02.504Z,100034.25
2022-11-05T14:40:36.411Z,100035.06
2022-11-05T14:43:06.160Z,100035.97
2022-11-05T14:45:38.446Z,100030.75
2022-11-05T14:48:25.822Z,100039.78
2022-11-05T14:50:52.968Z,100028.56
2022-11-05T14:53:37.579Z,100048.00
2022-11-05T14:56:15.758Z,100041.00
2022-11-05T14:58:53.929Z,100049.00
2022-11-05T15:01:33.727Z,100046.78
2022-11-05T15:04:53.349Z,100048.44
2022-11-05T15:07:22.774Z,100048.88
2022-11-05T15:10:05.741Z,100046.78
2022-11-05T15:12:47.083Z,100055.00
2022-11-05T15:15:43.026Z,100046.44
2022-11-05T15:18:10.104Z,100055.19
2022-11-05T15:20:44.250Z,100067.91
2022-11-05T15:23:15.632Z,100073.81
2022-11-05T15:26:10.721Z,100068.09
2022-11-05T15:28:45.106Z,100083.69
2022-11-05T15:31:15.156Z,100069.28
2022-11-05T15:33:44.636Z,100074.00
2022-11-05T15:36:25.644Z,100067.63
2022-11-05T15:39:23.102Z,100074.63
2022-11-05T15:41:40.235Z,100090.66
2022-11-05T15:44:27.377Z,100068.84
2022-11-05T15:47:14.758Z,100077.75
2022-11-05T15:49:44.158Z,100073.06
2022-11-05T15:52:13.435Z,100067.81
2022-11-05T15:54:41.105Z,100080.72
2022-11-05T15:57:23.811Z,100072.03
2022-11-05T15:59:50.884Z,100076.09
2022-11-05T16:02:33.252Z,100063.50
2022-11-05T16:05:03.479Z,100074.19
2022-11-05T16:07:34.313Z,100064.63
2022-11-05T16:10:05.082Z,100076.59
2022-11-05T16:12:37.054Z,100073.72
2022-11-05T16:15:10.097Z,100069.59
2022-11-05T16:17:40.090Z,100071.25
2022-11-05T16:20:20.601Z,100068.75
2022-11-05T16:22:51.296Z,100062.22
2022-11-05T16:25:27.893Z,100042.41
2022-11-05T16:28:00.794Z,100079.19
2022-11-05T16:30:28.725Z,100065.72
2022-11-05T16:33:06.266Z,100069.38
2022-11-05T16:35:33.445Z,100072.69
2022-11-05T16:38:02.047Z,100080.72
2022-11-05T16:40:29.602Z,100081.94
2022-11-05T16:43:18.619Z,100074.75
2022-11-05T16:45:46.010Z,100086.81
2022-11-05T16:48:14.234Z,100076.97
2022-11-05T16:50:43.680Z,100063.88
2022-11-05T16:53:12.229Z,100079.38
2022-11-05T16:55:41.576Z,100082.28
2022-11-05T16:58:19.841Z,100111.09
2022-11-05T17:00:48.089Z,100096.56
2022-11-05T17:03:15.336Z,100091.69
2022-11-05T17:05:42.816Z,100086.25
2022-11-05T17:08:10.186Z,100097.84
2022-11-05T17:10:37.417Z,100081.66
2022-11-05T17:13:04.466Z,100094.44
2022-11-05T17:15:36.421Z,100078.78
2022-11-05T17:18:07.521Z,100088.81
2022-11-05T17:20:41.763Z,100099.97
2022-11-05T17:23:16.231Z,100092.25
2022-11-05T17:25:46.524Z,100102.91
2022-11-05T17:28:14.810Z,100100.81
2022-11-05T17:30:43.308Z,100097.31
2022-11-05T17:33:12.449Z,100109.81
2022-11-05T17:35:41.229Z,100069.00
2022-11-05T17:38:09.932Z,100088.47
2022-11-05T17:40:38.037Z,100096.94
2022-11-05T17:43:06.112Z,100129.81
2022-11-05T17:45:33.412Z,100106.97
2022-11-05T17:48:01.941Z,100086.22
2022-11-05T17:50:29.291Z,100088.06
2022-11-05T17:52:56.847Z,100107.06
2022-11-05T17:55:23.812Z,100100.56
2022-11-05T17:57:52.245Z,100098.47
2022-11-05T18:00:23.658Z,100112.22
2022-11-05T18:02:53.266Z,100107.53
2022-11-05T18:05:22.058Z,100106.13
2022-11-05T18:07:49.754Z,100104.19
2022-11-05T18:10:17.364Z,100107.34
2022-11-05T18:12:45.113Z,100113.41
2022-11-05T18:15:13.376Z,100119.84
2022-11-05T18:17:40.643Z,100109.19
2022-11-05T18:20:14.187Z,100093.75
2022-11-05T18:22:44.675Z,100116.91
2022-11-05T18:25:13.089Z,100106.22
2022-11-05T18:27:47.761Z,100095.78
2022-11-05T18:30:23.225Z,100116.22
2022-11-05T18:32:51.177Z,100122.75
2022-11-05T18:35:18.340Z,100105.81
2022-11-05T18:37:45.739Z,100116.50
2022-11-05T18:40:13.181Z,100132.97
2022-11-05T18:42:40.613Z,100098.16
2022-11-05T18:45:09.186Z,100120.81
2022-11-05T18:47:36.558Z,100112.53
2022-11-05T18:50:05.835Z,100108.22
2022-11-05T18:52:33.218Z,100110.78
2022-11-05T18:55:00.552Z,100096.34
2022-11-05T18:57:28.298Z,100103.78
2022-11-05T18:59:55.351Z,100117.59
2022-11-05T19:02:22.569Z,100119.91
2022-11-05T19:05:14.061Z,100125.44
2022-11-05T19:07:40.108Z,100123.25
2022-11-05T19:10:07.894Z,100115.94
2022-11-05T19:12:34.919Z,100128.94
2022-11-05T19:15:08.382Z,100125.63
2022-11-05T19:17:37.025Z,100124.50
2022-11-05T19:20:07.557Z,100138.59
2022-11-05T19:22:34.471Z,100123.84
2022-11-05T19:25:01.639Z,100133.44
2022-11-05T19:27:30.824Z,100135.66
2022-11-05T19:29:58.932Z,100146.16
2022-11-05T19:32:25.909Z,100146.22
2022-11-05T19:34:53.184Z,100153.97
2022-11-05T19:37:20.297Z,100135.81
2022-11-05T19:39:47.408Z,100139.44
2022-11-05T19:42:16.348Z,100165.16
2022-11-05T19:44:43.943Z,100147.66
2022-11-05T19:47:10.998Z,100138.38
2022-11-05T19:49:37.960Z,100149.97
2022-11-05T19:52:05.031Z,100151.63
2022-11-05T19:54:31.995Z,100158.06
2022-11-05T19:56:58.901Z,100159.75
2022-11-05T19:59:25.893Z,100146.75
2022-11-05T20:01:53.055Z,100161.03
2022-11-05T20:04:20.063Z,100158.53
2022-11-05T20:06:47.056Z,100161.84
2022-11-05T20:09:23.163Z,100166.97
2022-11-05T20:11:54.951Z,100167.59
2022-11-05T20:14:23.654Z,100159.59
2022-11-05T20:16:51.185Z,100176.06
2022-11-05T20:19:20.835Z,100151.13
2022-11-05T20:21:50.049Z,100188.06
2022-11-05T20:24:24.176Z,100164.38
2022-11-05T20:26:56.296Z,100163.53
2022-11-05T20:29:27.825Z,100163.28
2022-11-05T20:31:58.095Z,100173.22
2022-11-05T20:34:25.058Z,100154.16
2022-11-05T20:36:51.996Z,100154.63
2022-11-05T20:39:26.291Z,100170.66
2022-11-05T20:41:53.756Z,100155.22
2022-11-05T20:44:20.798Z,100156.78
2022-11-05T20:46:52.627Z,100172.25
2022-11-05T20:49:24.983Z,100176.97
2022-11-05T20:51:52.468Z,100141.13
2022-11-05T20:54:19.419Z,100171.53
2022-11-05T20:56:46.438Z,100169.53
2022-11-05T20:59:14.561Z,100155.88
2022-11-05T21:01:41.662Z,100167.88
2022-11-05T21:04:08.701Z,100150.81
2022-11-05T21:06:36.024Z,100162.78
2022-11-05T21:09:04.382Z,100155.84
2022-11-05T21:11:51.506Z,100164.44
2022-11-05T21:14:18.603Z,100163.31
2022-11-05T21:16:45.557Z,100157.06
2022-11-05T21:19:12.533Z,100161.56
2022-11-05T21:21:41.276Z,100154.66
2022-11-05T21:24:09.731Z,100165.91
2022-11-05T21:26:37.569Z,100152.09
2022-11-05T21:29:04.507Z,100152.47
2022-11-05T21:31:31.362Z,100160.47
2022-11-05T21:33:58.313Z,100162.31
2022-11-05T21:36:25.224Z,100183.31
2022-11-05T21:38:52.184Z,100176.13
2022-11-05T21:41:19.257Z,100165.91
2022-11-05T21:43:46.177Z,100180.72
2022-11-05T21:46:13.631Z,100184.94
2022-11-05T21:48:40.557Z,100180.84
2022-11-05T21:51:26.607Z,100187.34
2022-11-05T21:54:11.938Z,100181.31
2022-11-05T21:56:57.237Z,100172.56
2022-11-05T21:59:43.519Z,100198.34
2022-11-05T22:02:12.769Z,100194.38
2022-11-05T22:04:44.012Z,100185.44
2022-11-05T22:07:13.154Z,100209.28
2022-11-05T22:09:40.281Z,100189.09
2022-11-05T22:12:08.028Z,100184.25
2022-11-05T22:14:36.987Z,100172.44
2022-11-05T22:17:07.544Z,100185.53
2022-11-05T22:19:35.449Z,100186.38
2022-11-05T22:22:03.723Z,100185.06
2022-11-05T22:24:32.015Z,100194.38
2022-11-05T22:27:00.539Z,100186.00
2022-11-05T22:29:27.940Z,100200.00
2022-11-05T22:31:54.950Z,100194.16
2022-11-05T22:34:21.956Z,100204.84
2022-11-05T22:36:49.343Z,100200.84
2022-11-05T22:39:19.498Z,100197.22
2022-11-05T22:41:46.764Z,100206.34
2022-11-05T22:44:14.362Z,100208.19
2022-11-05T22:46:41.990Z,100203.94
2022-11-05T22:49:09.179Z,100226.88
2022-11-05T22:51:38.104Z,100210.22
2022-11-05T22:54:07.334Z,100230.25
2022-11-05T22:56:37.178Z,100196.56
2022-11-05T22:59:05.301Z,100212.19
2022-11-05T23:01:32.523Z,100222.69
2022-11-05T23:03:59.974Z,100221.53
2022-11-05T23:06:48.240Z,100220.00
2022-11-05T23:09:49.467Z,100222.88
2022-11-05T23:12:31.951Z,100239.34
2022-11-05T23:15:00.471Z,100237.03
2022-11-05T23:17:46.848Z,100227.41
2022-11-05T23:20:42.958Z,100226.94
2022-11-05T23:23:29.805Z,100211.47
2022-11-05T23:25:58.655Z,100216.28
2022-11-05T23:28:25.646Z,100207.50
2022-11-05T23:31:11.506Z,100216.09
2022-11-05T23:33:38.491Z,100220.59
2022-11-05T23:36:23.948Z,100215.25
2022-11-05T23:38:50.874Z,100213.13
2022-11-05T23:41:36.293Z,100226.28
2022-11-05T23:44:21.710Z,100214.50
2022-11-05T23:47:07.199Z,100212.78
2022-11-05T23:49:34.117Z,100206.59
2022-11-05T23:52:01.101Z,100202.28
2022-11-05T23:54:28.037Z,100195.94
2022-11-05T23:56:55.031Z,100217.22
2022-11-05T23:59:22.026Z,100211.19
